sensor_id;sensor_type;location;lat;lon;timestamp;P1;durP1;ratioP1;P2;durP2;ratioP2
79668;SDS011;69136;52.614;6.976;2023-09-30T00:02:25;8.05;;;2.65;;
79668;SDS011;69136;52.614;6.976;2023-09-30T00:05:10;7.10;;;2.30;;
79668;SDS011;69136;52.614;6.976;2023-09-30T00:07:54;9.05;;;2.08;;
79668;SDS011;69136;52.614;6.976;2023-09-30T00:10:38;9.88;;;2.78;;
79668;SDS011;69136;52.614;6.976;2023-09-30T00:13:22;8.30;;;2.47;;
79668;SDS011;69136;52.614;6.976;2023-09-30T00:16:06;11.40;;;3.03;;
79668;SDS011;69136;52.614;6.976;2023-09-30T00:18:50;10.43;;;3.33;;
79668;SDS011;69136;52.614;6.976;2023-09-30T00:21:35;11.23;;;2.53;;
79668;SDS011;69136;52.614;6.976;2023-09-30T00:24:19;9.98;;;2.25;;
79668;SDS011;69136;52.614;6.976;2023-09-30T00:27:03;11.48;;;2.42;;
79668;SDS011;69136;52.614;6.976;2023-09-30T00:29:48;12.23;;;2.97;;
79668;SDS011;69136;52.614;6.976;2023-09-30T00:32:32;12.52;;;2.97;;
79668;SDS011;69136;52.614;6.976;2023-09-30T00:35:17;8.93;;;2.63;;
79668;SDS011;69136;52.614;6.976;2023-09-30T00:38:01;8.75;;;2.30;;
79668;SDS011;69136;52.614;6.976;2023-09-30T00:40:48;9.98;;;2.70;;
79668;SDS011;69136;52.614;6.976;2023-09-30T00:43:33;9.52;;;2.42;;
79668;SDS011;69136;52.614;6.976;2023-09-30T00:46:21;9.50;;;2.70;;
79668;SDS011;69136;52.614;6.976;2023-09-30T00:49:10;11.32;;;2.70;;
79668;SDS011;69136;52.614;6.976;2023-09-30T00:51:57;9.00;;;2.35;;
79668;SDS011;69136;52.614;6.976;2023-09-30T00:54:42;9.48;;;2.60;;
79668;SDS011;69136;52.614;6.976;2023-09-30T00:57:27;7.60;;;2.25;;
79668;SDS011;69136;52.614;6.976;2023-09-30T01:00:14;10.70;;;3.15;;
79668;SDS011;69136;52.614;6.976;2023-09-30T01:02:58;8.65;;;2.60;;
79668;SDS011;69136;52.614;6.976;2023-09-30T01:05:47;8.60;;;2.50;;
79668;SDS011;69136;52.614;6.976;2023-09-30T01:08:31;6.97;;;2.30;;
79668;SDS011;69136;52.614;6.976;2023-09-30T01:11:16;8.68;;;2.60;;
79668;SDS011;69136;52.614;6.976;2023-09-30T01:14:01;8.13;;;2.78;;
79668;SDS011;69136;52.614;6.976;2023-09-30T01:16:45;10.02;;;2.90;;
79668;SDS011;69136;52.614;6.976;2023-09-30T01:19:28;11.05;;;2.75;;
79668;SDS011;69136;52.614;6.976;2023-09-30T01:22:13;7.10;;;2.45;;
79668;SDS011;69136;52.614;6.976;2023-09-30T01:24:57;7.05;;;2.30;;
79668;SDS011;69136;52.614;6.976;2023-09-30T01:27:41;7.85;;;2.75;;
79668;SDS011;69136;52.614;6.976;2023-09-30T01:30:26;8.32;;;2.35;;
79668;SDS011;69136;52.614;6.976;2023-09-30T01:33:10;11.93;;;4.28;;
79668;SDS011;69136;52.614;6.976;2023-09-30T01:35:54;8.95;;;2.90;;
79668;SDS011;69136;52.614;6.976;2023-09-30T01:38:38;10.77;;;2.88;;
79668;SDS011;69136;52.614;6.976;2023-09-30T01:41:22;8.13;;;2.53;;
79668;SDS011;69136;52.614;6.976;2023-09-30T01:44:07;13.05;;;3.20;;
79668;SDS011;69136;52.614;6.976;2023-09-30T01:46:54;7.28;;;2.50;;
79668;SDS011;69136;52.614;6.976;2023-09-30T01:49:38;8.23;;;2.28;;
79668;SDS011;69136;52.614;6.976;2023-09-30T01:52:22;8.95;;;2.72;;
79668;SDS011;69136;52.614;6.976;2023-09-30T01:55:07;8.23;;;2.97;;
79668;SDS011;69136;52.614;6.976;2023-09-30T01:57:51;10.15;;;3.92;;
79668;SDS011;69136;52.614;6.976;2023-09-30T02:00:35;9.90;;;2.50;;
79668;SDS011;69136;52.614;6.976;2023-09-30T02:03:19;13.23;;;3.03;;
79668;SDS011;69136;52.614;6.976;2023-09-30T02:06:03;9.77;;;2.83;;
79668;SDS011;69136;52.614;6.976;2023-09-30T02:08:47;7.00;;;2.47;;
79668;SDS011;69136;52.614;6.976;2023-09-30T02:11:31;9.35;;;3.28;;
79668;SDS011;69136;52.614;6.976;2023-09-30T02:14:16;8.35;;;2.40;;
79668;SDS011;69136;52.614;6.976;2023-09-30T02:17:00;8.60;;;2.90;;
79668;SDS011;69136;52.614;6.976;2023-09-30T02:19:44;16.95;;;3.90;;
79668;SDS011;69136;52.614;6.976;2023-09-30T02:22:29;6.93;;;2.92;;
79668;SDS011;69136;52.614;6.976;2023-09-30T02:25:13;8.55;;;3.58;;
79668;SDS011;69136;52.614;6.976;2023-09-30T02:27:57;9.10;;;2.83;;
79668;SDS011;69136;52.614;6.976;2023-09-30T02:30:42;7.72;;;2.80;;
79668;SDS011;69136;52.614;6.976;2023-09-30T02:33:27;10.80;;;3.22;;
79668;SDS011;69136;52.614;6.976;2023-09-30T02:36:11;9.20;;;3.00;;
79668;SDS011;69136;52.614;6.976;2023-09-30T02:38:56;6.82;;;2.83;;
79668;SDS011;69136;52.614;6.976;2023-09-30T02:41:42;11.25;;;3.60;;
79668;SDS011;69136;52.614;6.976;2023-09-30T02:44:27;14.13;;;3.55;;
79668;SDS011;69136;52.614;6.976;2023-09-30T02:47:11;9.50;;;3.08;;
79668;SDS011;69136;52.614;6.976;2023-09-30T02:49:56;5.97;;;3.08;;
79668;SDS011;69136;52.614;6.976;2023-09-30T02:52:41;10.65;;;3.08;;
79668;SDS011;69136;52.614;6.976;2023-09-30T02:55:25;8.27;;;2.67;;
79668;SDS011;69136;52.614;6.976;2023-09-30T02:58:09;9.27;;;2.75;;
79668;SDS011;69136;52.614;6.976;2023-09-30T03:00:55;11.40;;;3.22;;
79668;SDS011;69136;52.614;6.976;2023-09-30T03:03:40;10.15;;;3.50;;
79668;SDS011;69136;52.614;6.976;2023-09-30T03:06:24;10.25;;;3.25;;
79668;SDS011;69136;52.614;6.976;2023-09-30T03:09:07;8.77;;;3.13;;
79668;SDS011;69136;52.614;6.976;2023-09-30T03:11:53;10.55;;;3.50;;
79668;SDS011;69136;52.614;6.976;2023-09-30T03:14:39;7.05;;;2.83;;
79668;SDS011;69136;52.614;6.976;2023-09-30T03:17:23;11.10;;;3.42;;
79668;SDS011;69136;52.614;6.976;2023-09-30T03:20:10;6.82;;;2.70;;
79668;SDS011;69136;52.614;6.976;2023-09-30T03:22:58;10.32;;;3.10;;
79668;SDS011;69136;52.614;6.976;2023-09-30T03:25:43;9.20;;;3.97;;
79668;SDS011;69136;52.614;6.976;2023-09-30T03:28:27;8.15;;;3.00;;
79668;SDS011;69136;52.614;6.976;2023-09-30T03:31:11;7.53;;;3.05;;
79668;SDS011;69136;52.614;6.976;2023-09-30T03:33:55;9.70;;;2.88;;
79668;SDS011;69136;52.614;6.976;2023-09-30T03:36:39;8.43;;;3.20;;
79668;SDS011;69136;52.614;6.976;2023-09-30T03:39:24;9.93;;;2.83;;
79668;SDS011;69136;52.614;6.976;2023-09-30T03:42:11;8.07;;;2.88;;
79668;SDS011;69136;52.614;6.976;2023-09-30T03:44:55;9.02;;;2.92;;
79668;SDS011;69136;52.614;6.976;2023-09-30T03:47:39;11.77;;;3.55;;
79668;SDS011;69136;52.614;6.976;2023-09-30T03:50:24;7.55;;;2.75;;
79668;SDS011;69136;52.614;6.976;2023-09-30T03:53:09;7.97;;;2.92;;
79668;SDS011;69136;52.614;6.976;2023-09-30T03:55:53;8.52;;;3.22;;
79668;SDS011;69136;52.614;6.976;2023-09-30T03:58:40;9.63;;;3.05;;
79668;SDS011;69136;52.614;6.976;2023-09-30T04:01:25;12.10;;;3.85;;
79668;SDS011;69136;52.614;6.976;2023-09-30T04:04:10;7.47;;;3.20;;
79668;SDS011;69136;52.614;6.976;2023-09-30T04:06:55;10.43;;;2.85;;
79668;SDS011;69136;52.614;6.976;2023-09-30T04:09:39;8.45;;;3.05;;
79668;SDS011;69136;52.614;6.976;2023-09-30T04:12:23;8.20;;;3.08;;
79668;SDS011;69136;52.614;6.976;2023-09-30T04:15:07;8.93;;;2.75;;
79668;SDS011;69136;52.614;6.976;2023-09-30T04:17:55;7.70;;;2.70;;
79668;SDS011;69136;52.614;6.976;2023-09-30T04:20:39;8.20;;;3.25;;
79668;SDS011;69136;52.614;6.976;2023-09-30T04:23:23;6.60;;;2.97;;
79668;SDS011;69136;52.614;6.976;2023-09-30T04:26:07;7.95;;;2.85;;
79668;SDS011;69136;52.614;6.976;2023-09-30T04:28:53;7.70;;;2.88;;
79668;SDS011;69136;52.614;6.976;2023-09-30T04:31:38;9.75;;;2.92;;
79668;SDS011;69136;52.614;6.976;2023-09-30T04:34:23;6.78;;;2.95;;
79668;SDS011;69136;52.614;6.976;2023-09-30T04:37:07;6.43;;;3.05;;
79668;SDS011;69136;52.614;6.976;2023-09-30T04:39:53;8.75;;;3.20;;
79668;SDS011;69136;52.614;6.976;2023-09-30T04:42:37;8.98;;;3.33;;
79668;SDS011;69136;52.614;6.976;2023-09-30T04:45:21;6.45;;;2.92;;
79668;SDS011;69136;52.614;6.976;2023-09-30T04:48:08;10.95;;;3.78;;
79668;SDS011;69136;52.614;6.976;2023-09-30T04:50:52;8.52;;;4.05;;
79668;SDS011;69136;52.614;6.976;2023-09-30T04:53:36;6.65;;;2.88;;
79668;SDS011;69136;52.614;6.976;2023-09-30T04:56:21;10.93;;;4.00;;
79668;SDS011;69136;52.614;6.976;2023-09-30T04:59:05;9.75;;;3.17;;
79668;SDS011;69136;52.614;6.976;2023-09-30T05:01:49;9.05;;;3.67;;
79668;SDS011;69136;52.614;6.976;2023-09-30T05:04:33;8.02;;;3.33;;
79668;SDS011;69136;52.614;6.976;2023-09-30T05:10:01;7.18;;;3.83;;
79668;SDS011;69136;52.614;6.976;2023-09-30T05:12:49;8.77;;;3.92;;
79668;SDS011;69136;52.614;6.976;2023-09-30T05:15:33;10.20;;;3.80;;
79668;SDS011;69136;52.614;6.976;2023-09-30T05:18:19;7.13;;;3.95;;
79668;SDS011;69136;52.614;6.976;2023-09-30T05:21:03;8.95;;;4.30;;
79668;SDS011;69136;52.614;6.976;2023-09-30T05:23:47;7.88;;;3.60;;
79668;SDS011;69136;52.614;6.976;2023-09-30T05:26:31;8.90;;;3.53;;
79668;SDS011;69136;52.614;6.976;2023-09-30T05:29:16;11.88;;;4.15;;
79668;SDS011;69136;52.614;6.976;2023-09-30T05:32:00;10.75;;;3.50;;
79668;SDS011;69136;52.614;6.976;2023-09-30T05:34:44;7.50;;;3.53;;
79668;SDS011;69136;52.614;6.976;2023-09-30T05:37:29;8.02;;;3.63;;
79668;SDS011;69136;52.614;6.976;2023-09-30T05:40:13;10.52;;;3.85;;
79668;SDS011;69136;52.614;6.976;2023-09-30T05:43:08;10.63;;;3.90;;
79668;SDS011;69136;52.614;6.976;2023-09-30T05:45:52;7.60;;;3.67;;
79668;SDS011;69136;52.614;6.976;2023-09-30T05:48:38;10.70;;;4.40;;
79668;SDS011;69136;52.614;6.976;2023-09-30T05:51:25;8.18;;;4.28;;
79668;SDS011;69136;52.614;6.976;2023-09-30T05:54:10;8.40;;;4.20;;
79668;SDS011;69136;52.614;6.976;2023-09-30T05:56:55;7.22;;;3.67;;
79668;SDS011;69136;52.614;6.976;2023-09-30T05:59:40;9.25;;;4.25;;
79668;SDS011;69136;52.614;6.976;2023-09-30T06:02:24;10.27;;;4.88;;
79668;SDS011;69136;52.614;6.976;2023-09-30T06:05:08;12.00;;;4.47;;
79668;SDS011;69136;52.614;6.976;2023-09-30T06:07:52;10.77;;;4.13;;
79668;SDS011;69136;52.614;6.976;2023-09-30T06:10:37;9.75;;;3.72;;
79668;SDS011;69136;52.614;6.976;2023-09-30T06:13:26;9.93;;;4.28;;
79668;SDS011;69136;52.614;6.976;2023-09-30T06:16:12;12.25;;;4.43;;
79668;SDS011;69136;52.614;6.976;2023-09-30T06:18:56;16.70;;;4.60;;
79668;SDS011;69136;52.614;6.976;2023-09-30T06:21:40;10.98;;;4.82;;
79668;SDS011;69136;52.614;6.976;2023-09-30T06:24:24;12.95;;;4.82;;
79668;SDS011;69136;52.614;6.976;2023-09-30T06:27:08;12.77;;;4.85;;
79668;SDS011;69136;52.614;6.976;2023-09-30T06:29:57;11.40;;;4.50;;
79668;SDS011;69136;52.614;6.976;2023-09-30T06:32:41;13.98;;;5.80;;
79668;SDS011;69136;52.614;6.976;2023-09-30T06:35:26;10.07;;;4.60;;
79668;SDS011;69136;52.614;6.976;2023-09-30T06:38:13;10.88;;;4.32;;
79668;SDS011;69136;52.614;6.976;2023-09-30T06:40:57;13.77;;;5.55;;
79668;SDS011;69136;52.614;6.976;2023-09-30T06:43:41;13.55;;;5.65;;
79668;SDS011;69136;52.614;6.976;2023-09-30T06:46:25;10.77;;;6.00;;
79668;SDS011;69136;52.614;6.976;2023-09-30T06:49:10;10.27;;;5.35;;
79668;SDS011;69136;52.614;6.976;2023-09-30T06:51:54;14.93;;;5.78;;
79668;SDS011;69136;52.614;6.976;2023-09-30T06:54:38;10.85;;;5.53;;
79668;SDS011;69136;52.614;6.976;2023-09-30T06:57:22;11.98;;;6.47;;
79668;SDS011;69136;52.614;6.976;2023-09-30T07:00:10;12.07;;;5.88;;
79668;SDS011;69136;52.614;6.976;2023-09-30T07:02:56;14.80;;;6.28;;
79668;SDS011;69136;52.614;6.976;2023-09-30T07:05:43;16.33;;;7.32;;
79668;SDS011;69136;52.614;6.976;2023-09-30T07:08:27;16.70;;;7.35;;
79668;SDS011;69136;52.614;6.976;2023-09-30T07:11:13;14.18;;;7.68;;
79668;SDS011;69136;52.614;6.976;2023-09-30T07:13:57;12.65;;;7.35;;
79668;SDS011;69136;52.614;6.976;2023-09-30T07:16:41;20.75;;;7.93;;
79668;SDS011;69136;52.614;6.976;2023-09-30T07:19:26;19.70;;;8.20;;
79668;SDS011;69136;52.614;6.976;2023-09-30T07:22:10;17.80;;;7.40;;
79668;SDS011;69136;52.614;6.976;2023-09-30T07:24:55;20.98;;;9.20;;
79668;SDS011;69136;52.614;6.976;2023-09-30T07:27:38;19.50;;;8.70;;
79668;SDS011;69136;52.614;6.976;2023-09-30T07:30:23;15.57;;;9.02;;
79668;SDS011;69136;52.614;6.976;2023-09-30T07:33:07;17.60;;;9.05;;
79668;SDS011;69136;52.614;6.976;2023-09-30T07:35:51;19.50;;;9.07;;
79668;SDS011;69136;52.614;6.976;2023-09-30T07:38:35;17.85;;;8.52;;
79668;SDS011;69136;52.614;6.976;2023-09-30T07:41:19;21.50;;;9.25;;
79668;SDS011;69136;52.614;6.976;2023-09-30T07:44:04;18.20;;;9.68;;
79668;SDS011;69136;52.614;6.976;2023-09-30T07:46:48;18.38;;;9.43;;
79668;SDS011;69136;52.614;6.976;2023-09-30T07:49:32;25.65;;;11.40;;
79668;SDS011;69136;52.614;6.976;2023-09-30T07:52:17;24.73;;;10.00;;
79668;SDS011;69136;52.614;6.976;2023-09-30T07:55:01;19.60;;;10.27;;
79668;SDS011;69136;52.614;6.976;2023-09-30T07:57:45;20.55;;;10.75;;
79668;SDS011;69136;52.614;6.976;2023-09-30T08:00:29;19.95;;;10.10;;
79668;SDS011;69136;52.614;6.976;2023-09-30T08:03:14;21.98;;;10.57;;
79668;SDS011;69136;52.614;6.976;2023-09-30T08:05:58;20.98;;;10.38;;
79668;SDS011;69136;52.614;6.976;2023-09-30T08:08:42;18.10;;;9.52;;
79668;SDS011;69136;52.614;6.976;2023-09-30T08:11:26;19.63;;;10.88;;
79668;SDS011;69136;52.614;6.976;2023-09-30T08:14:11;19.95;;;11.13;;
79668;SDS011;69136;52.614;6.976;2023-09-30T08:16:55;21.48;;;10.20;;
79668;SDS011;69136;52.614;6.976;2023-09-30T08:19:40;21.33;;;10.70;;
79668;SDS011;69136;52.614;6.976;2023-09-30T08:22:24;20.48;;;10.35;;
79668;SDS011;69136;52.614;6.976;2023-09-30T08:25:11;21.67;;;10.70;;
79668;SDS011;69136;52.614;6.976;2023-09-30T08:27:56;20.65;;;10.32;;
79668;SDS011;69136;52.614;6.976;2023-09-30T08:30:40;19.58;;;10.15;;
79668;SDS011;69136;52.614;6.976;2023-09-30T08:33:24;22.95;;;11.13;;
79668;SDS011;69136;52.614;6.976;2023-09-30T08:36:09;22.42;;;9.88;;
79668;SDS011;69136;52.614;6.976;2023-09-30T08:38:54;22.58;;;10.15;;
79668;SDS011;69136;52.614;6.976;2023-09-30T08:41:37;22.55;;;10.45;;
79668;SDS011;69136;52.614;6.976;2023-09-30T08:44:21;19.73;;;10.20;;
79668;SDS011;69136;52.614;6.976;2023-09-30T08:47:06;19.92;;;10.80;;
79668;SDS011;69136;52.614;6.976;2023-09-30T08:49:53;22.90;;;9.85;;
79668;SDS011;69136;52.614;6.976;2023-09-30T08:52:40;19.95;;;9.23;;
79668;SDS011;69136;52.614;6.976;2023-09-30T08:55:25;18.58;;;9.05;;
79668;SDS011;69136;52.614;6.976;2023-09-30T08:58:11;18.05;;;9.25;;
79668;SDS011;69136;52.614;6.976;2023-09-30T09:00:56;17.52;;;9.10;;
79668;SDS011;69136;52.614;6.976;2023-09-30T09:03:40;18.20;;;8.43;;
79668;SDS011;69136;52.614;6.976;2023-09-30T09:06:24;20.60;;;9.20;;
79668;SDS011;69136;52.614;6.976;2023-09-30T09:09:13;16.20;;;8.52;;
79668;SDS011;69136;52.614;6.976;2023-09-30T09:12:00;17.90;;;8.35;;
79668;SDS011;69136;52.614;6.976;2023-09-30T09:14:44;19.05;;;9.88;;
79668;SDS011;69136;52.614;6.976;2023-09-30T09:17:40;16.05;;;8.38;;
79668;SDS011;69136;52.614;6.976;2023-09-30T09:20:25;16.25;;;8.85;;
79668;SDS011;69136;52.614;6.976;2023-09-30T09:23:09;16.25;;;8.15;;
79668;SDS011;69136;52.614;6.976;2023-09-30T09:25:58;14.52;;;8.52;;
79668;SDS011;69136;52.614;6.976;2023-09-30T09:28:42;17.20;;;8.52;;
79668;SDS011;69136;52.614;6.976;2023-09-30T09:31:27;17.17;;;7.90;;
79668;SDS011;69136;52.614;6.976;2023-09-30T09:34:13;16.33;;;8.75;;
79668;SDS011;69136;52.614;6.976;2023-09-30T09:36:58;15.20;;;8.32;;
79668;SDS011;69136;52.614;6.976;2023-09-30T09:39:55;15.00;;;7.70;;
79668;SDS011;69136;52.614;6.976;2023-09-30T09:42:40;17.05;;;7.43;;
79668;SDS011;69136;52.614;6.976;2023-09-30T09:45:25;16.00;;;8.15;;
79668;SDS011;69136;52.614;6.976;2023-09-30T09:48:11;16.60;;;7.53;;
79668;SDS011;69136;52.614;6.976;2023-09-30T09:50:55;16.58;;;7.13;;
79668;SDS011;69136;52.614;6.976;2023-09-30T09:53:43;14.40;;;7.05;;
79668;SDS011;69136;52.614;6.976;2023-09-30T09:56:27;14.25;;;6.78;;
79668;SDS011;69136;52.614;6.976;2023-09-30T09:59:12;18.52;;;6.75;;
79668;SDS011;69136;52.614;6.976;2023-09-30T10:01:57;13.63;;;6.65;;
79668;SDS011;69136;52.614;6.976;2023-09-30T10:04:42;14.57;;;6.57;;
79668;SDS011;69136;52.614;6.976;2023-09-30T10:07:31;10.93;;;5.38;;
79668;SDS011;69136;52.614;6.976;2023-09-30T10:10:18;13.38;;;5.72;;
79668;SDS011;69136;52.614;6.976;2023-09-30T10:13:03;13.05;;;5.43;;
79668;SDS011;69136;52.614;6.976;2023-09-30T10:15:48;11.63;;;6.28;;
79668;SDS011;69136;52.614;6.976;2023-09-30T10:18:32;15.63;;;6.63;;
79668;SDS011;69136;52.614;6.976;2023-09-30T10:25:33;11.52;;;5.00;;
79668;SDS011;69136;52.614;6.976;2023-09-30T10:31:21;10.13;;;3.92;;
79668;SDS011;69136;52.614;6.976;2023-09-30T10:36:52;12.90;;;4.20;;
79668;SDS011;69136;52.614;6.976;2023-09-30T10:39:53;9.85;;;3.97;;
79668;SDS011;69136;52.614;6.976;2023-09-30T10:42:48;9.52;;;3.53;;
79668;SDS011;69136;52.614;6.976;2023-09-30T10:51:32;9.82;;;4.15;;
79668;SDS011;69136;52.614;6.976;2023-09-30T10:54:22;10.77;;;4.13;;
79668;SDS011;69136;52.614;6.976;2023-09-30T10:57:10;8.10;;;3.05;;
79668;SDS011;69136;52.614;6.976;2023-09-30T11:00:12;9.43;;;3.47;;
79668;SDS011;69136;52.614;6.976;2023-09-30T11:02:58;8.70;;;3.58;;
79668;SDS011;69136;52.614;6.976;2023-09-30T11:05:46;10.25;;;3.83;;
79668;SDS011;69136;52.614;6.976;2023-09-30T11:08:32;12.25;;;4.05;;
79668;SDS011;69136;52.614;6.976;2023-09-30T11:11:16;7.55;;;3.03;;
79668;SDS011;69136;52.614;6.976;2023-09-30T11:14:01;9.90;;;3.40;;
79668;SDS011;69136;52.614;6.976;2023-09-30T11:16:46;8.27;;;3.08;;
79668;SDS011;69136;52.614;6.976;2023-09-30T11:19:45;8.10;;;2.50;;
79668;SDS011;69136;52.614;6.976;2023-09-30T11:22:30;10.00;;;2.05;;
79668;SDS011;69136;52.614;6.976;2023-09-30T11:25:16;3.67;;;1.60;;
79668;SDS011;69136;52.614;6.976;2023-09-30T11:28:18;8.68;;;2.30;;
79668;SDS011;69136;52.614;6.976;2023-09-30T11:31:02;9.52;;;2.20;;
79668;SDS011;69136;52.614;6.976;2023-09-30T11:33:50;8.05;;;2.08;;
79668;SDS011;69136;52.614;6.976;2023-09-30T11:36:36;4.20;;;1.35;;
79668;SDS011;69136;52.614;6.976;2023-09-30T11:39:22;6.68;;;1.88;;
79668;SDS011;69136;52.614;6.976;2023-09-30T11:42:15;7.78;;;2.53;;
79668;SDS011;69136;52.614;6.976;2023-09-30T11:45:17;8.82;;;1.83;;
79668;SDS011;69136;52.614;6.976;2023-09-30T11:48:03;6.85;;;2.28;;
79668;SDS011;69136;52.614;6.976;2023-09-30T11:51:00;8.48;;;1.83;;
79668;SDS011;69136;52.614;6.976;2023-09-30T11:53:46;4.07;;;1.73;;
79668;SDS011;69136;52.614;6.976;2023-09-30T11:56:31;4.80;;;1.63;;
79668;SDS011;69136;52.614;6.976;2023-09-30T11:59:16;4.22;;;1.20;;
79668;SDS011;69136;52.614;6.976;2023-09-30T12:02:04;7.13;;;2.08;;
79668;SDS011;69136;52.614;6.976;2023-09-30T12:04:52;8.07;;;2.28;;
79668;SDS011;69136;52.614;6.976;2023-09-30T12:07:37;6.65;;;2.47;;
79668;SDS011;69136;52.614;6.976;2023-09-30T12:10:25;7.75;;;2.25;;
79668;SDS011;69136;52.614;6.976;2023-09-30T12:13:09;3.75;;;1.90;;
79668;SDS011;69136;52.614;6.976;2023-09-30T12:15:55;7.13;;;1.88;;
79668;SDS011;69136;52.614;6.976;2023-09-30T12:18:41;4.57;;;1.58;;
79668;SDS011;69136;52.614;6.976;2023-09-30T12:21:25;5.55;;;1.50;;
79668;SDS011;69136;52.614;6.976;2023-09-30T12:24:10;4.07;;;1.50;;
79668;SDS011;69136;52.614;6.976;2023-09-30T12:26:57;4.03;;;1.50;;
79668;SDS011;69136;52.614;6.976;2023-09-30T12:29:41;4.85;;;1.38;;
79668;SDS011;69136;52.614;6.976;2023-09-30T12:32:26;4.38;;;1.40;;
79668;SDS011;69136;52.614;6.976;2023-09-30T12:35:10;7.00;;;1.55;;
79668;SDS011;69136;52.614;6.976;2023-09-30T12:37:55;6.95;;;1.77;;
79668;SDS011;69136;52.614;6.976;2023-09-30T12:40:39;7.07;;;1.50;;
79668;SDS011;69136;52.614;6.976;2023-09-30T12:43:23;4.28;;;1.30;;
79668;SDS011;69136;52.614;6.976;2023-09-30T12:46:08;6.05;;;1.60;;
79668;SDS011;69136;52.614;6.976;2023-09-30T12:48:53;4.72;;;1.70;;
79668;SDS011;69136;52.614;6.976;2023-09-30T12:51:38;7.70;;;2.35;;
79668;SDS011;69136;52.614;6.976;2023-09-30T12:54:23;6.93;;;2.65;;
79668;SDS011;69136;52.614;6.976;2023-09-30T12:57:08;6.00;;;2.30;;
79668;SDS011;69136;52.614;6.976;2023-09-30T12:59:52;7.18;;;2.60;;
79668;SDS011;69136;52.614;6.976;2023-09-30T13:02:37;7.97;;;2.33;;
79668;SDS011;69136;52.614;6.976;2023-09-30T13:05:22;6.68;;;1.85;;
79668;SDS011;69136;52.614;6.976;2023-09-30T13:08:06;5.13;;;1.98;;
79668;SDS011;69136;52.614;6.976;2023-09-30T13:10:50;6.43;;;1.70;;
79668;SDS011;69136;52.614;6.976;2023-09-30T13:13:35;4.47;;;1.85;;
79668;SDS011;69136;52.614;6.976;2023-09-30T13:16:20;8.20;;;2.08;;
79668;SDS011;69136;52.614;6.976;2023-09-30T13:19:06;6.97;;;1.92;;
79668;SDS011;69136;52.614;6.976;2023-09-30T13:21:50;7.03;;;1.90;;
79668;SDS011;69136;52.614;6.976;2023-09-30T13:24:34;7.28;;;2.10;;
79668;SDS011;69136;52.614;6.976;2023-09-30T13:27:23;4.68;;;1.70;;
79668;SDS011;69136;52.614;6.976;2023-09-30T13:30:07;6.18;;;2.28;;
79668;SDS011;69136;52.614;6.976;2023-09-30T13:32:52;5.30;;;2.08;;
79668;SDS011;69136;52.614;6.976;2023-09-30T13:35:37;6.90;;;2.00;;
79668;SDS011;69136;52.614;6.976;2023-09-30T13:38:22;9.07;;;2.40;;
79668;SDS011;69136;52.614;6.976;2023-09-30T13:41:06;6.57;;;2.28;;
79668;SDS011;69136;52.614;6.976;2023-09-30T13:43:50;5.70;;;1.63;;
79668;SDS011;69136;52.614;6.976;2023-09-30T13:46:35;4.43;;;1.80;;
79668;SDS011;69136;52.614;6.976;2023-09-30T13:49:19;6.82;;;1.85;;
79668;SDS011;69136;52.614;6.976;2023-09-30T13:52:04;5.18;;;1.63;;
79668;SDS011;69136;52.614;6.976;2023-09-30T13:54:49;5.60;;;1.45;;
79668;SDS011;69136;52.614;6.976;2023-09-30T13:57:34;5.43;;;1.65;;
79668;SDS011;69136;52.614;6.976;2023-09-30T14:00:19;7.00;;;2.05;;
79668;SDS011;69136;52.614;6.976;2023-09-30T14:03:04;7.97;;;2.00;;
79668;SDS011;69136;52.614;6.976;2023-09-30T14:05:49;7.25;;;2.80;;
79668;SDS011;69136;52.614;6.976;2023-09-30T14:08:33;7.30;;;1.70;;
79668;SDS011;69136;52.614;6.976;2023-09-30T14:11:17;6.50;;;2.00;;
79668;SDS011;69136;52.614;6.976;2023-09-30T14:14:01;6.88;;;1.40;;
79668;SDS011;69136;52.614;6.976;2023-09-30T14:16:45;6.45;;;1.60;;
79668;SDS011;69136;52.614;6.976;2023-09-30T14:19:31;5.28;;;1.60;;
79668;SDS011;69136;52.614;6.976;2023-09-30T14:22:15;5.90;;;1.60;;
79668;SDS011;69136;52.614;6.976;2023-09-30T14:24:59;8.25;;;1.80;;
79668;SDS011;69136;52.614;6.976;2023-09-30T14:27:43;6.72;;;1.40;;
79668;SDS011;69136;52.614;6.976;2023-09-30T14:30:28;10.10;;;1.55;;
79668;SDS011;69136;52.614;6.976;2023-09-30T14:33:13;4.85;;;1.27;;
79668;SDS011;69136;52.614;6.976;2023-09-30T14:35:58;7.03;;;1.20;;
79668;SDS011;69136;52.614;6.976;2023-09-30T14:38:42;8.18;;;1.38;;
79668;SDS011;69136;52.614;6.976;2023-09-30T14:41:26;5.35;;;1.40;;
79668;SDS011;69136;52.614;6.976;2023-09-30T14:44:11;7.07;;;1.92;;
79668;SDS011;69136;52.614;6.976;2023-09-30T14:46:56;6.07;;;1.77;;
79668;SDS011;69136;52.614;6.976;2023-09-30T14:49:41;5.00;;;1.60;;
79668;SDS011;69136;52.614;6.976;2023-09-30T14:52:25;6.68;;;1.50;;
79668;SDS011;69136;52.614;6.976;2023-09-30T14:55:09;7.32;;;2.20;;
79668;SDS011;69136;52.614;6.976;2023-09-30T14:57:54;6.40;;;2.38;;
79668;SDS011;69136;52.614;6.976;2023-09-30T15:00:38;5.35;;;2.28;;
79668;SDS011;69136;52.614;6.976;2023-09-30T15:03:22;6.90;;;1.73;;
79668;SDS011;69136;52.614;6.976;2023-09-30T15:06:07;6.75;;;2.10;;
79668;SDS011;69136;52.614;6.976;2023-09-30T15:08:51;7.57;;;2.30;;
79668;SDS011;69136;52.614;6.976;2023-09-30T15:11:35;5.72;;;2.05;;
79668;SDS011;69136;52.614;6.976;2023-09-30T15:14:19;7.28;;;2.13;;
79668;SDS011;69136;52.614;6.976;2023-09-30T15:17:03;7.00;;;1.95;;
79668;SDS011;69136;52.614;6.976;2023-09-30T15:19:47;4.22;;;1.90;;
79668;SDS011;69136;52.614;6.976;2023-09-30T15:22:32;6.32;;;1.92;;
79668;SDS011;69136;52.614;6.976;2023-09-30T15:25:16;6.28;;;1.73;;
79668;SDS011;69136;52.614;6.976;2023-09-30T15:28:02;8.43;;;2.60;;
79668;SDS011;69136;52.614;6.976;2023-09-30T15:30:50;5.22;;;2.00;;
79668;SDS011;69136;52.614;6.976;2023-09-30T15:33:34;8.45;;;1.90;;
79668;SDS011;69136;52.614;6.976;2023-09-30T15:36:19;6.90;;;2.13;;
79668;SDS011;69136;52.614;6.976;2023-09-30T15:39:04;7.10;;;2.35;;
79668;SDS011;69136;52.614;6.976;2023-09-30T15:41:48;8.25;;;2.33;;
79668;SDS011;69136;52.614;6.976;2023-09-30T15:44:32;5.28;;;1.95;;
79668;SDS011;69136;52.614;6.976;2023-09-30T15:47:16;7.20;;;2.17;;
79668;SDS011;69136;52.614;6.976;2023-09-30T15:50:01;6.95;;;2.25;;
79668;SDS011;69136;52.614;6.976;2023-09-30T15:52:44;7.68;;;1.85;;
79668;SDS011;69136;52.614;6.976;2023-09-30T15:55:28;5.05;;;2.10;;
79668;SDS011;69136;52.614;6.976;2023-09-30T15:58:12;7.88;;;2.63;;
79668;SDS011;69136;52.614;6.976;2023-09-30T16:00:57;6.82;;;2.83;;
79668;SDS011;69136;52.614;6.976;2023-09-30T16:03:41;8.50;;;2.22;;
79668;SDS011;69136;52.614;6.976;2023-09-30T16:06:26;6.35;;;2.53;;
79668;SDS011;69136;52.614;6.976;2023-09-30T16:09:11;6.25;;;2.58;;
79668;SDS011;69136;52.614;6.976;2023-09-30T16:11:55;5.82;;;2.20;;
79668;SDS011;69136;52.614;6.976;2023-09-30T16:14:39;6.72;;;2.78;;
79668;SDS011;69136;52.614;6.976;2023-09-30T16:17:24;5.75;;;2.38;;
79668;SDS011;69136;52.614;6.976;2023-09-30T16:20:08;11.07;;;2.72;;
79668;SDS011;69136;52.614;6.976;2023-09-30T16:22:53;5.10;;;2.00;;
79668;SDS011;69136;52.614;6.976;2023-09-30T16:25:37;7.88;;;2.05;;
79668;SDS011;69136;52.614;6.976;2023-09-30T16:28:21;5.88;;;2.45;;
79668;SDS011;69136;52.614;6.976;2023-09-30T16:31:05;7.03;;;2.17;;
79668;SDS011;69136;52.614;6.976;2023-09-30T16:33:49;5.15;;;2.13;;
79668;SDS011;69136;52.614;6.976;2023-09-30T16:36:33;5.53;;;2.22;;
79668;SDS011;69136;52.614;6.976;2023-09-30T16:39:17;6.38;;;1.92;;
79668;SDS011;69136;52.614;6.976;2023-09-30T16:42:01;4.90;;;2.25;;
79668;SDS011;69136;52.614;6.976;2023-09-30T16:44:45;4.68;;;2.10;;
79668;SDS011;69136;52.614;6.976;2023-09-30T16:47:30;6.70;;;2.65;;